Time;durP1;ratioP1;P1;durP2;ratioP2;P2;SDS_P1;SDS_P2;PMS_P1;PMS_P2;Temp;Humidity;BMP_temperature;BMP_pressure;BME280_temperature;BME280_humidity;BME280_pressure;Samples;Min_cycle;Max_cycle;Signal;HPM_P1;HPM_P2
2022/06/08 00:01:06;;;;;;;4.57;1.43;;;;;;;13.07;100.00;98426.03;5092180;28;20198;-51
2022/06/08 00:03:39;;;;;;;11.00;3.37;;;;;;;13.01;100.00;98422.28;5093521;28;20232;-52
2022/06/08 00:06:07;;;;;;;6.43;1.60;;;;;;;12.93;100.00;98417.09;5093462;28;20209;-53
2022/06/08 00:08:34;;;;;;;9.90;2.07;;;;;;;12.89;100.00;98415.78;5092955;28;20208;-51
2022/06/08 00:11:01;;;;;;;8.27;2.03;;;;;;;12.82;100.00;98416.47;5093437;28;20659;-51
2022/06/08 00:13:31;;;;;;;3.97;1.70;;;;;;;12.81;100.00;98406.19;5093134;28;20194;-51
2022/06/08 00:15:58;;;;;;;3.17;1.60;;;;;;;12.81;100.00;98406.19;5093304;28;20243;-52
2022/06/08 00:18:25;;;;;;;4.83;1.60;;;;;;;12.87;100.00;98409.91;5093120;28;20215;-51
2022/06/08 00:20:53;;;;;;;11.63;1.80;;;;;;;12.90;100.00;98406.94;5093229;28;20185;-51
2022/06/08 00:23:21;;;;;;;8.07;2.20;;;;;;;12.88;100.00;98401.91;5093337;28;20179;-51
2022/06/08 00:25:48;;;;;;;3.10;1.63;;;;;;;12.86;100.00;98396.00;5092511;28;20560;-52
2022/06/08 00:28:16;;;;;;;5.33;1.70;;;;;;;12.83;100.00;98393.72;5092762;28;20574;-53
2022/06/08 00:30:45;;;;;;;6.27;1.63;;;;;;;12.84;100.00;98396.16;5093166;28;20268;-51
2022/06/08 00:33:14;;;;;;;4.23;1.60;;;;;;;12.83;100.00;98391.13;5091861;28;20194;-53
2022/06/08 00:35:42;;;;;;;6.93;1.87;;;;;;;12.78;100.00;98382.94;5093192;28;20192;-51
2022/06/08 00:38:09;;;;;;;9.97;1.93;;;;;;;12.80;100.00;98383.59;5091328;28;20211;-51
2022/06/08 00:40:48;;;;;;;6.93;1.73;;;;;;;12.70;100.00;98373.34;5092808;28;20186;-51
2022/06/08 00:43:16;;;;;;;3.43;1.53;;;;;;;12.67;100.00;98371.88;5092853;28;20196;-52
2022/06/08 00:45:46;;;;;;;4.30;1.87;;;;;;;12.69;100.00;98374.31;5091293;28;20245;-54
2022/06/08 00:48:13;;;;;;;4.70;1.63;;;;;;;12.70;100.00;98368.91;5090924;28;20217;-51
2022/06/08 00:50:45;;;;;;;4.50;2.00;;;;;;;12.74;100.00;98373.81;5091501;28;20187;-52
2022/06/08 00:53:15;;;;;;;3.70;1.20;;;;;;;12.77;100.00;98376.09;5091679;28;20190;-54
2022/06/08 00:55:44;;;;;;;4.13;1.50;;;;;;;12.83;100.00;98378.81;5091328;28;20202;-54
2022/06/08 00:58:15;;;;;;;4.73;1.57;;;;;;;12.90;100.00;98373.72;5090843;28;20220;-53
2022/06/08 01:00:44;;;;;;;7.30;1.80;;;;;;;12.90;100.00;98376.34;5091501;28;20231;-54
2022/06/08 01:03:15;;;;;;;3.93;1.50;;;;;;;12.92;100.00;98370.91;5091352;28;20209;-53
2022/06/08 01:05:56;;;;;;;8.90;1.80;;;;;;;12.91;100.00;98364.88;5091381;28;20265;-51
2022/06/08 01:08:31;;;;;;;4.50;1.80;;;;;;;12.89;100.00;98360.78;5090810;28;20297;-51
2022/06/08 01:11:02;;;;;;;6.40;1.50;;;;;;;12.87;100.00;98357.53;5091061;28;20197;-53
2022/06/08 01:13:35;;;;;;;9.57;1.67;;;;;;;12.88;100.00;98359.16;5091011;28;20625;-51
2022/06/08 01:16:11;;;;;;;5.07;1.63;;;;;;;12.94;100.00;98361.09;5091019;28;20218;-52
2022/06/08 01:18:40;;;;;;;13.87;1.83;;;;;;;12.95;100.00;98358.31;5090955;28;20662;-51
2022/06/08 01:21:50;;;;;;;4.83;1.50;;;;;;;13.02;100.00;98368.09;5090941;28;20195;-51
2022/06/08 01:24:25;;;;;;;4.68;1.58;;;;;;;13.07;100.00;98361.34;5090645;28;20432;-53
2022/06/08 01:27:12;;;;;;;5.10;1.50;;;;;;;13.08;100.00;98360.34;5091011;28;20194;-51
2022/06/08 01:29:46;;;;;;;5.40;1.63;;;;;;;13.09;100.00;98356.75;5090660;28;20194;-54
2022/06/08 01:32:24;;;;;;;3.83;1.50;;;;;;;13.07;100.00;98357.91;5092206;28;20195;-51
2022/06/08 01:35:02;;;;;;;5.87;1.40;;;;;;;13.06;100.00;98345.81;5090836;28;20199;-54
2022/06/08 01:37:39;;;;;;;9.13;1.67;;;;;;;12.99;100.00;98353.53;5090426;28;20218;-53
2022/06/08 01:40:31;;;;;;;2.57;1.50;;;;;;;12.94;100.00;98355.84;5094937;28;20203;-52
2022/06/08 01:43:20;;;;;;;6.17;1.57;;;;;;;12.94;100.00;98356.69;5082688;28;20198;-51
2022/06/08 01:46:01;;;;;;;6.07;1.80;;;;;;;12.94;100.00;98354.06;5094880;28;20195;-52
2022/06/08 01:48:46;;;;;;;4.40;1.53;;;;;;;12.91;100.00;98350.94;5095904;28;20210;-53
2022/06/08 01:51:24;;;;;;;6.00;1.80;;;;;;;12.88;100.00;98338.19;5094666;28;20202;-54
2022/06/08 01:54:02;;;;;;;5.80;1.37;;;;;;;12.82;100.00;98337.91;5094785;28;20201;-52
2022/06/08 01:56:41;;;;;;;4.30;1.50;;;;;;;12.82;100.00;98331.84;5094939;28;20575;-52
2022/06/08 01:59:21;;;;;;;5.17;1.40;;;;;;;12.78;100.00;98327.94;5094255;28;20260;-52
2022/06/08 02:01:56;;;;;;;5.10;2.20;;;;;;;12.76;100.00;98328.09;5094536;28;20757;-52
2022/06/08 02:04:33;;;;;;;5.63;1.67;;;;;;;12.76;99.92;98325.50;5094455;28;20191;-54
2022/06/08 02:07:13;;;;;;;8.93;1.50;;;;;;;12.74;99.06;98324.84;5094681;28;20183;-52
2022/06/08 02:09:47;;;;;;;6.13;1.43;;;;;;;12.76;97.74;98315.00;5094273;28;20275;-53
2022/06/08 02:12:18;;;;;;;5.60;1.80;;;;;;;12.75;95.67;98318.63;5094170;28;20237;-51
2022/06/08 02:14:51;;;;;;;4.27;1.40;;;;;;;12.74;96.97;98318.81;5094361;28;20198;-52
2022/06/08 02:17:27;;;;;;;5.03;1.40;;;;;;;12.69;97.31;98306.25;5094038;28;20647;-52
2022/06/08 02:19:59;;;;;;;9.43;1.60;;;;;;;12.60;98.73;98315.13;5094103;28;20650;-54
2022/06/08 02:22:35;;;;;;;3.50;1.20;;;;;;;12.47;100.00;98310.44;5094213;28;20198;-53
2022/06/08 02:25:14;;;;;;;7.20;1.50;;;;;;;12.43;100.00;98307.34;5093468;28;20443;-53
2022/06/08 02:27:46;;;;;;;8.77;1.97;;;;;;;12.35;100.00;98310.81;5093792;28;20466;-52
2022/06/08 02:30:37;;;;;;;4.37;2.00;;;;;;;12.31;100.00;98303.47;5095820;28;20196;-51
2022/06/08 02:36:02;;;;;;;7.90;1.80;;;;;;;12.15;100.00;98293.91;5094093;28;20202;-54
2022/06/08 02:38:35;;;;;;;5.53;2.03;;;;;;;12.08;100.00;98294.56;5093700;28;20368;-52
2022/06/08 02:41:08;;;;;;;6.97;1.90;;;;;;;12.10;100.00;98294.38;5093958;28;20243;-52
2022/06/08 02:43:45;;;;;;;6.70;1.80;;;;;;;12.00;100.00;98288.53;5095586;28;20281;-53
2022/06/08 02:46:26;;;;;;;8.23;1.83;;;;;;;11.92;100.00;98291.97;5094256;28;20192;-52
2022/06/08 02:48:56;;;;;;;7.37;2.03;;;;;;;11.80;100.00;98291.47;5093366;28;20209;-52
2022/06/08 02:51:28;;;;;;;6.50;1.40;;;;;;;11.74;100.00;98292.16;5094627;28;20182;-52
2022/06/08 02:54:01;;;;;;;6.00;1.40;;;;;;;11.75;100.00;98291.16;5094283;28;20684;-51
2022/06/08 02:56:44;;;;;;;4.73;1.47;;;;;;;11.63;100.00;98282.88;5094707;28;20192;-52
2022/06/08 02:59:18;;;;;;;11.23;1.70;;;;;;;11.63;100.00;98282.88;5093700;28;20559;-53
2022/06/08 03:01:50;;;;;;;4.83;1.50;;;;;;;11.59;100.00;98282.41;5094386;28;20275;-51
2022/06/08 03:04:23;;;;;;;7.50;1.70;;;;;;;11.63;100.00;98288.94;5094101;28;20217;-52
2022/06/08 03:09:41;;;;;;;10.70;1.80;;;;;;;11.57;100.00;98273.06;5093175;28;20202;-52
2022/06/08 03:12:17;;;;;;;11.80;1.40;;;;;;;11.54;100.00;98271.63;5093463;28;20204;-52
2022/06/08 03:14:47;;;;;;;8.50;1.60;;;;;;;11.49;100.00;98272.09;5093062;28;20206;-52
2022/06/08 03:17:18;;;;;;;3.93;1.60;;;;;;;11.45;100.00;98270.78;5093281;28;20228;-51
2022/06/08 03:19:46;;;;;;;4.53;1.40;;;;;;;11.44;100.00;98265.75;5092957;28;20201;-52
2022/06/08 03:22:16;;;;;;;5.70;1.43;;;;;;;11.46;100.00;98263.78;5093301;28;20195;-53
2022/06/08 03:24:45;;;;;;;3.53;1.33;;;;;;;11.46;100.00;98264.59;5093137;28;20191;-52
2022/06/08 03:27:14;;;;;;;7.53;2.00;;;;;;;11.42;100.00;98265.91;5092922;28;20188;-52
2022/06/08 03:29:48;;;;;;;5.40;1.60;;;;;;;11.42;100.00;98267.72;5092981;28;20677;-52
2022/06/08 03:32:16;;;;;;;5.47;1.77;;;;;;;11.45;100.00;98256.94;5093123;28;20191;-52
2022/06/08 03:34:44;;;;;;;6.90;1.50;;;;;;;11.50;100.00;98267.72;5093128;28;20183;-52
2022/06/08 03:37:12;;;;;;;11.43;1.50;;;;;;;11.54;100.00;98269.00;5092677;28;20213;-52
2022/06/08 03:39:45;;;;;;;4.47;1.70;;;;;;;11.56;100.00;98266.22;5092624;28;20198;-54
2022/06/08 03:42:13;;;;;;;3.20;1.40;;;;;;;11.52;100.00;98261.31;5094077;28;20529;-51
2022/06/08 03:44:41;;;;;;;5.43;2.00;;;;;;;11.51;100.00;98264.91;5092860;28;20219;-51
2022/06/08 03:47:12;;;;;;;7.30;1.70;;;;;;;11.54;100.00;98271.63;5092658;28;20551;-52
2022/06/08 03:49:40;;;;;;;3.13;1.53;;;;;;;11.52;100.00;98263.13;5092511;28;20194;-52
2022/06/08 03:52:13;;;;;;;5.37;1.47;;;;;;;11.50;100.00;98265.88;5093883;28;20184;-52
2022/06/08 03:54:45;;;;;;;6.43;1.50;;;;;;;11.55;100.00;98268.03;5092395;28;20196;-51
2022/06/08 03:57:15;;;;;;;3.60;1.37;;;;;;;11.54;100.00;98268.19;5092551;28;20229;-52
2022/06/08 03:59:45;;;;;;;4.93;1.53;;;;;;;11.55;100.00;98270.63;5093456;28;20691;-52
2022/06/08 04:02:13;;;;;;;9.60;1.53;;;;;;;11.56;100.00;98266.22;5091576;28;20188;-51
2022/06/08 04:04:43;;;;;;;5.83;1.47;;;;;;;11.55;100.00;98257.56;5092192;28;20535;-53
2022/06/08 04:07:10;;;;;;;7.73;1.40;;;;;;;11.55;100.00;98249.72;5092195;28;20183;-51
2022/06/08 04:09:43;;;;;;;5.73;1.47;;;;;;;11.57;100.00;98253.00;5092105;28;20788;-52
2022/06/08 04:12:11;;;;;;;10.23;1.70;;;;;;;11.60;100.00;98252.66;5092433;28;20240;-52
2022/06/08 04:14:42;;;;;;;10.17;1.63;;;;;;;11.62;100.00;98252.47;5092159;28;20637;-52
2022/06/08 04:17:13;;;;;;;4.23;1.13;;;;;;;11.62;100.00;98249.88;5091976;28;20207;-54
2022/06/08 04:19:41;;;;;;;4.13;1.33;;;;;;;11.64;100.00;98245.28;5092171;28;20284;-53
2022/06/08 04:22:10;;;;;;;3.67;1.60;;;;;;;11.64;100.00;98247.91;5092029;28;20191;-52
2022/06/08 04:24:40;;;;;;;4.97;1.33;;;;;;;11.66;100.00;98244.13;5091950;28;20210;-53
2022/06/08 04:27:08;;;;;;;6.80;1.50;;;;;;;11.71;100.00;98251.47;5091671;28;20221;-54
2022/06/08 04:29:42;;;;;;;5.37;1.70;;;;;;;11.75;100.00;98250.16;5091694;28;20215;-53
2022/06/08 04:32:12;;;;;;;5.07;1.43;;;;;;;11.76;100.00;98256.19;5091732;28;20190;-52
2022/06/08 04:34:43;;;;;;;9.17;1.90;;;;;;;11.78;100.00;98254.22;5091813;28;20187;-54
2022/06/08 04:37:13;;;;;;;5.40;1.50;;;;;;;11.81;100.00;98269.59;5091458;28;20711;-52
2022/06/08 04:39:45;;;;;;;3.27;1.33;;;;;;;11.84;100.00;98268.44;5091621;28;20187;-53
2022/06/08 04:42:12;;;;;;;8.33;1.77;;;;;;;11.92;100.00;98268.44;5091409;28;20191;-51
2022/06/08 04:44:44;;;;;;;6.63;1.43;;;;;;;12.08;100.00;98262.34;5091668;28;20682;-51
2022/06/08 04:47:16;;;;;;;5.73;1.50;;;;;;;12.25;100.00;98256.06;5091388;28;20591;-53
2022/06/08 04:49:45;;;;;;;15.40;1.60;;;;;;;12.45;100.00;98254.81;5091253;28;20331;-52
2022/06/08 04:52:15;;;;;;;7.87;1.47;;;;;;;12.63;100.00;98257.19;5091381;28;20198;-51
2022/06/08 04:54:43;;;;;;;5.20;1.70;;;;;;;12.87;100.00;98255.38;5091456;28;20191;-51
2022/06/08 04:57:11;;;;;;;5.00;1.23;;;;;;;13.10;100.00;98250.94;5091138;28;20206;-53
2022/06/08 04:59:39;;;;;;;3.30;1.83;;;;;;;13.30;100.00;98247.81;5091153;28;20201;-53
2022/06/08 05:02:42;;;;;;;3.37;1.03;;;;;;;13.52;100.00;98255.84;5091436;28;20191;-51
2022/06/08 05:05:05;;;;;;;5.30;1.60;;;;;;;13.67;99.18;98255.84;5091059;28;20240;-54
2022/06/08 05:07:35;;;;;;;5.23;1.47;;;;;;;13.90;99.08;98254.97;5091281;28;20694;-52
2022/06/08 05:10:05;;;;;;;3.43;1.50;;;;;;;14.09;99.20;98256.22;5091220;28;20193;-51
2022/06/08 05:12:33;;;;;;;5.00;1.50;;;;;;;14.23;98.55;98258.00;5091097;28;20196;-52
2022/06/08 05:15:02;;;;;;;5.60;1.20;;;;;;;14.34;97.72;98261.16;5091057;28;20200;-52
2022/06/08 05:17:33;;;;;;;2.37;1.10;;;;;;;14.42;98.29;98253.19;5090641;28;20224;-51
2022/06/08 05:20:00;;;;;;;3.77;1.00;;;;;;;14.47;99.17;98250.81;5092413;28;20212;-54
2022/06/08 05:22:29;;;;;;;5.13;1.60;;;;;;;14.48;98.78;98249.81;5090913;28;20196;-53
2022/06/08 05:24:58;;;;;;;7.43;1.40;;;;;;;14.46;99.12;98251.81;5091018;28;20207;-51
2022/06/08 05:27:25;;;;;;;6.67;1.27;;;;;;;14.44;98.88;98238.84;5090618;28;20189;-52
2022/06/08 05:29:54;;;;;;;6.53;1.43;;;;;;;14.40;98.65;98234.16;5090920;28;20197;-52
2022/06/08 05:32:22;;;;;;;7.50;1.40;;;;;;;14.38;98.76;98236.97;5091047;28;20197;-53
2022/06/08 05:34:51;;;;;;;3.87;1.43;;;;;;;14.39;98.59;98237.78;5091084;28;20193;-52
2022/06/08 05:37:18;;;;;;;6.70;1.47;;;;;;;14.37;98.07;98235.34;5090789;28;20250;-52
2022/06/08 05:39:45;;;;;;;4.03;1.50;;;;;;;14.48;98.38;98236.69;5090513;28;20208;-53
2022/06/08 05:42:13;;;;;;;6.40;1.30;;;;;;;14.76;96.79;98241.25;5090910;28;20249;-52
2022/06/08 05:44:43;;;;;;;2.50;1.00;;;;;;;14.87;94.42;98232.84;5091100;28;20187;-52
2022/06/08 05:47:12;;;;;;;5.37;1.80;;;;;;;14.95;93.41;98231.06;5091075;28;20221;-53
2022/06/08 05:49:40;;;;;;;4.57;1.23;;;;;;;15.15;92.02;98236.53;5090815;28;20284;-53
2022/06/08 05:52:10;;;;;;;6.13;1.40;;;;;;;15.42;91.48;98234.91;5091235;28;20204;-51
2022/06/08 05:54:39;;;;;;;5.70;1.10;;;;;;;15.65;89.54;98220.69;5090855;28;20197;-53
2022/06/08 05:57:09;;;;;;;4.17;1.20;;;;;;;15.85;88.70;98228.66;5090519;28;20185;-54
2022/06/08 05:59:41;;;;;;;6.63;1.20;;;;;;;15.99;89.93;98226.94;5090771;28;20246;-53
2022/06/08 06:02:11;;;;;;;3.67;1.20;;;;;;;16.07;90.38;98216.25;5090997;28;20202;-53
2022/06/08 06:04:40;;;;;;;4.47;1.17;;;;;;;16.04;89.60;98221.09;5090955;28;20190;-52
2022/06/08 06:07:08;;;;;;;5.33;1.40;;;;;;;16.49;90.09;98220.63;5091226;28;20212;-52
2022/06/08 06:09:37;;;;;;;4.47;1.30;;;;;;;17.03;87.57;98218.09;5091068;28;20197;-51
2022/06/08 06:12:06;;;;;;;4.93;1.43;;;;;;;17.57;85.32;98216.19;5091365;28;20197;-52
2022/06/08 06:14:37;;;;;;;2.93;0.90;;;;;;;18.01;80.74;98219.19;5091461;28;20198;-53
2022/06/08 06:17:06;;;;;;;2.67;1.00;;;;;;;18.17;80.15;98217.88;5091543;28;20601;-53
2022/06/08 06:19:33;;;;;;;4.37;1.40;;;;;;;18.50;80.40;98218.72;5091278;28;20216;-52
2022/06/08 06:22:18;;;;;;;4.43;0.93;;;;;;;18.86;79.71;98204.84;5091638;28;20198;-53
2022/06/08 06:25:06;;;;;;;4.13;0.93;;;;;;;19.27;76.49;98205.34;5092822;28;20218;-52
2022/06/08 06:27:51;;;;;;;5.07;1.00;;;;;;;19.38;73.63;98201.19;5095979;28;20213;-53
2022/06/08 06:30:38;;;;;;;2.30;0.80;;;;;;;19.43;71.92;98208.47;5095865;28;20271;-53
2022/06/08 06:33:27;;;;;;;3.07;0.97;;;;;;;19.39;74.35;98202.81;5095354;28;20195;-52
2022/06/08 06:35:56;;;;;;;8.43;1.10;;;;;;;19.49;73.38;98196.22;5094887;28;20211;-52
2022/06/08 06:38:23;;;;;;;3.27;1.20;;;;;;;19.46;72.42;98198.25;5094434;28;20212;-52
2022/06/08 06:40:53;;;;;;;4.53;1.10;;;;;;;19.30;76.36;98196.19;5094927;28;20259;-53
2022/06/08 06:43:21;;;;;;;4.07;1.10;;;;;;;19.23;76.55;98195.44;5094678;28;20222;-52
2022/06/08 06:46:10;;;;;;;4.80;1.20;;;;;;;19.21;77.04;98185.06;5095626;28;20200;-52
2022/06/08 06:49:00;;;;;;;5.93;1.00;;;;;;;19.13;75.21;98183.50;5095767;28;20274;-54
2022/06/08 06:51:27;;;;;;;5.57;1.20;;;;;;;19.18;78.16;98188.13;5094331;28;20238;-53
2022/06/08 06:53:55;;;;;;;5.30;1.00;;;;;;;19.15;76.54;98178.00;5094367;28;20265;-54
2022/06/08 06:56:24;;;;;;;5.53;1.00;;;;;;;18.94;74.94;98166.75;5094177;28;20217;-52
2022/06/08 06:58:57;;;;;;;6.77;0.93;;;;;;;19.01;75.90;98164.91;5093626;28;20214;-53
2022/06/08 07:01:28;;;;;;;3.37;0.90;;;;;;;19.02;73.95;98165.69;5094302;28;20708;-53
2022/06/08 07:03:57;;;;;;;4.30;1.10;;;;;;;19.08;74.72;98161.38;5095034;28;20195;-55
2022/06/08 07:06:25;;;;;;;4.23;0.93;;;;;;;19.13;76.41;98159.69;5093802;28;20701;-52
2022/06/08 07:08:52;;;;;;;3.87;1.00;;;;;;;19.26;78.92;98165.91;5093576;28;20213;-52
2022/06/08 07:11:40;;;;;;;5.27;0.80;;;;;;;19.26;75.90;98161.41;5095661;28;20210;-54
2022/06/08 07:14:20;;;;;;;3.70;1.00;;;;;;;19.04;72.88;98158.34;5093543;28;20203;-52
2022/06/08 07:17:00;;;;;;;4.37;0.90;;;;;;;18.96;75.60;98154.16;5093665;28;20281;-53
2022/06/08 07:19:31;;;;;;;4.20;1.00;;;;;;;19.12;63.20;98157.25;5092668;28;20582;-53
2022/06/08 07:21:59;;;;;;;2.67;0.90;;;;;;;19.24;70.93;98158.16;5093203;28;20195;-54
2022/06/08 07:24:30;;;;;;;1.93;0.80;;;;;;;19.36;60.29;98147.69;5094784;28;20685;-52
2022/06/08 07:27:00;;;;;;;2.73;0.80;;;;;;;19.54;55.70;98156.66;5093593;28;20191;-53
2022/06/08 07:29:26;;;;;;;3.33;0.90;;;;;;;19.52;57.06;98146.28;5094301;28;20571;-52
2022/06/08 07:31:53;;;;;;;6.63;0.80;;;;;;;19.64;53.81;98145.53;5095758;28;20187;-55
2022/06/08 07:34:21;;;;;;;2.93;0.63;;;;;;;19.85;56.29;98158.31;5096265;28;20612;-53
2022/06/08 07:36:49;;;;;;;5.67;1.03;;;;;;;19.89;54.83;98150.75;5097352;28;20187;-54
2022/06/08 07:39:19;;;;;;;1.87;0.90;;;;;;;19.76;55.32;98157.00;5095781;28;20216;-54
2022/06/08 07:41:47;;;;;;;3.43;0.97;;;;;;;19.44;53.62;98162.44;5094607;28;20248;-52
2022/06/08 07:44:17;;;;;;;2.43;0.77;;;;;;;19.45;55.15;98150.81;5094303;28;20194;-52
2022/06/08 07:46:45;;;;;;;6.37;1.00;;;;;;;19.71;55.04;98147.06;5094201;28;20191;-52
2022/06/08 07:51:57;;;;;;;2.63;1.33;;;;;;;19.78;57.84;98154.94;5094113;28;20187;-52
2022/06/08 07:54:27;;;;;;;5.70;1.30;;;;;;;19.69;59.77;98148.31;5094136;28;20184;-52
2022/06/08 07:56:55;;;;;;;2.67;1.00;;;;;;;19.94;58.88;98144.81;5093898;28;20256;-52
2022/06/08 07:59:28;;;;;;;7.03;1.57;;;;;;;19.73;59.37;98142.34;5093403;28;20214;-54
2022/06/08 08:01:56;;;;;;;8.30;1.40;;;;;;;20.03;60.21;98132.88;5094139;28;20279;-53
2022/06/08 08:04:24;;;;;;;7.57;1.50;;;;;;;20.13;59.50;98135.78;5093868;28;20662;-52
2022/06/08 08:06:51;;;;;;;5.07;1.53;;;;;;;20.20;59.73;98127.72;5093706;28;20187;-53
2022/06/08 08:09:20;;;;;;;9.80;1.47;;;;;;;19.83;59.60;98131.25;5093594;28;20204;-52
2022/06/08 08:11:49;;;;;;;6.90;1.67;;;;;;;19.96;59.13;98129.50;5095799;28;20195;-54
2022/06/08 08:14:17;;;;;;;7.73;1.77;;;;;;;20.05;60.18;98130.81;5094831;28;20249;-52
2022/06/08 08:16:45;;;;;;;2.67;1.20;;;;;;;20.27;59.31;98128.44;5094136;28;20180;-54
2022/06/08 08:19:17;;;;;;;7.73;1.37;;;;;;;20.72;56.87;98128.97;5092800;28;20222;-52
2022/06/08 08:21:44;;;;;;;4.00;1.40;;;;;;;20.77;57.12;98129.94;5093939;28;20275;-54
2022/06/08 08:24:11;;;;;;;5.07;1.47;;;;;;;21.07;55.20;98130.88;5093502;28;20187;-54
2022/06/08 08:26:38;;;;;;;6.00;1.20;;;;;;;21.25;53.47;98127.25;5093931;28;20203;-54
2022/06/08 08:29:06;;;;;;;5.47;1.27;;;;;;;21.53;54.75;98115.09;5093121;28;20201;-54
2022/06/08 08:31:34;;;;;;;4.50;1.10;;;;;;;21.53;53.51;98115.91;5093666;28;20507;-52
2022/06/08 08:34:02;;;;;;;4.13;1.00;;;;;;;21.79;54.21;98115.63;5093468;28;20185;-52
2022/06/08 08:36:30;;;;;;;5.57;1.67;;;;;;;21.16;55.28;98110.09;5093433;28;20264;-54
2022/06/08 08:38:58;;;;;;;9.83;1.33;;;;;;;21.03;56.57;98097.88;5093047;28;20206;-52
2022/06/08 08:44:32;;;;;;;5.83;1.97;;;;;;;21.23;54.77;98100.16;5057393;28;20204;-54
2022/06/08 08:47:09;;;;;;;5.13;1.47;;;;;;;21.36;56.78;98091.13;5093220;28;20272;-52
2022/06/08 08:49:45;;;;;;;4.10;1.43;;;;;;;21.21;53.95;98086.31;5093214;28;20184;-52
2022/06/08 08:52:20;;;;;;;4.63;1.10;;;;;;;21.04;55.11;98084.38;5092968;28;20180;-52
2022/06/08 08:54:57;;;;;;;4.23;1.27;;;;;;;21.14;56.58;98085.66;5093312;28;20210;-53
2022/06/08 08:57:34;;;;;;;3.47;1.60;;;;;;;20.76;56.33;98082.38;5093564;28;20267;-52
2022/06/08 09:00:15;;;;;;;6.40;1.60;;;;;;;21.27;55.80;98080.06;5093356;28;20191;-54
2022/06/08 09:05:34;;;;;;;6.03;1.33;;;;;;;21.41;54.37;98082.47;5082398;28;20198;-52
2022/06/08 09:08:01;;;;;;;6.30;1.20;;;;;;;20.90;53.57;98077.72;5092550;28;20299;-52
2022/06/08 09:10:29;;;;;;;4.53;1.30;;;;;;;20.75;53.68;98065.69;5091322;28;20199;-52
2022/06/08 09:12:56;;;;;;;9.13;1.30;;;;;;;20.97;53.82;98078.41;5091513;28;20191;-54
2022/06/08 09:15:46;;;;;;;3.53;0.93;;;;;;;20.91;53.02;98069.50;5092456;28;20204;-52
2022/06/08 09:18:29;;;;;;;3.17;1.30;;;;;;;20.40;55.67;98060.38;5092510;28;20212;-53
2022/06/08 09:20:58;;;;;;;3.43;2.10;;;;;;;20.41;56.85;98065.44;5092801;28;20191;-54
2022/06/08 09:23:38;;;;;;;5.73;2.30;;;;;;;20.30;58.05;98063.56;5092664;28;20228;-53
2022/06/08 09:26:10;;;;;;;5.07;1.60;;;;;;;20.47;55.55;98050.47;5092586;28;20269;-52
2022/06/08 09:28:39;;;;;;;6.03;1.50;;;;;;;20.79;55.15;98043.00;5092623;28;20578;-52
2022/06/08 09:31:24;;;;;;;5.50;1.57;;;;;;;21.08;54.18;98043.09;5092681;28;20182;-52
2022/06/08 09:34:04;;;;;;;4.70;1.87;;;;;;;21.31;53.77;98041.41;5092803;28;20537;-51
2022/06/08 09:36:33;;;;;;;3.23;1.50;;;;;;;21.49;53.50;98036.97;5092890;28;20186;-53
2022/06/08 09:39:00;;;;;;;2.77;1.10;;;;;;;21.46;52.64;98027.63;5092382;28;20203;-51
2022/06/08 09:41:37;;;;;;;3.03;1.23;;;;;;;21.72;52.16;98032.63;5092559;28;20260;-53
2022/06/08 09:44:21;;;;;;;2.97;0.97;;;;;;;21.82;49.36;98033.59;5093193;28;20178;-54
2022/06/08 09:52:57;;;;;;;4.10;1.33;;;;;;;22.09;49.83;98022.38;5091083;28;20191;-52
2022/06/08 09:55:34;;;;;;;3.03;1.10;;;;;;;22.20;48.20;98023.34;5091306;28;20199;-54
2022/06/08 09:58:16;;;;;;;3.50;1.10;;;;;;;22.16;47.26;98024.88;5092101;28;20206;-54
2022/06/08 10:00:51;;;;;;;3.87;0.60;;;;;;;22.78;46.35;98020.50;5095461;28;20202;-52
2022/06/08 10:03:32;;;;;;;3.63;1.13;;;;;;;22.67;44.67;98016.91;5096293;28;20192;-53
2022/06/08 10:06:07;;;;;;;3.87;0.80;;;;;;;22.99;43.51;98020.75;5096071;28;20558;-52
2022/06/08 10:08:47;;;;;;;4.23;0.93;;;;;;;23.18;42.52;98015.13;5095909;28;20284;-52
2022/06/08 10:11:37;;;;;;;3.13;1.03;;;;;;;22.78;40.45;98017.81;5095862;28;20185;-52
2022/06/08 10:14:13;;;;;;;4.93;1.20;;;;;;;22.54;43.14;98014.56;5094721;28;20208;-52
2022/06/08 10:16:47;;;;;;;3.07;1.40;;;;;;;22.50;44.45;98014.25;5096036;28;20565;-52
2022/06/08 10:19:21;;;;;;;3.47;1.37;;;;;;;22.35;45.26;98017.47;5095795;28;20660;-52
2022/06/08 10:21:50;;;;;;;1.83;1.07;;;;;;;22.48;46.54;98005.69;5095912;28;20276;-53
2022/06/08 10:24:25;;;;;;;2.23;1.30;;;;;;;22.75;43.32;98006.88;5095855;28;20187;-54
2022/06/08 10:26:58;;;;;;;5.10;0.90;;;;;;;22.94;42.68;98000.19;5095534;28;20270;-53
2022/06/08 10:29:31;;;;;;;3.50;1.00;;;;;;;22.94;42.58;98000.19;5095604;28;20202;-52
2022/06/08 10:32:06;;;;;;;3.60;1.10;;;;;;;22.56;43.53;98002.63;5094269;28;20669;-54
2022/06/08 10:34:36;;;;;;;5.10;1.00;;;;;;;23.04;40.24;97998.72;5095997;28;20218;-54
2022/06/08 10:37:06;;;;;;;3.03;0.70;;;;;;;23.08;39.40;97986.50;5095811;28;20183;-52
2022/06/08 10:39:36;;;;;;;3.53;1.00;;;;;;;23.28;41.18;97988.66;5095155;28;20203;-54
2022/06/08 10:45:04;;;;;;;3.73;1.00;;;;;;;23.63;43.03;97987.41;5095188;28;20228;-54
2022/06/08 10:47:33;;;;;;;2.90;0.87;;;;;;;23.88;41.13;97988.69;5095534;28;20207;-54
2022/06/08 10:50:23;;;;;;;7.53;0.80;;;;;;;23.52;40.03;97980.34;5095658;28;20593;-53
2022/06/08 10:52:51;;;;;;;2.30;0.77;;;;;;;24.35;37.60;97986.41;5095585;28;20508;-53
2022/06/08 10:55:39;;;;;;;5.43;1.10;;;;;;;24.27;36.83;97985.00;5094190;28;20279;-52
2022/06/08 10:58:12;;;;;;;1.40;0.70;;;;;;;24.27;38.82;97977.81;5095172;28;20279;-52
2022/06/08 11:01:19;;;;;;;5.20;1.00;;;;;;;23.97;38.55;97971.16;5095774;28;20209;-52
2022/06/08 11:03:56;;;;;;;3.63;0.77;;;;;;;24.08;37.93;97972.06;5095416;28;20290;-53
2022/06/08 11:07:03;;;;;;;2.53;1.00;;;;;;;24.27;38.33;97963.69;5095142;28;20185;-52
2022/06/08 11:09:52;;;;;;;1.57;0.70;;;;;;;24.80;38.70;97966.38;5094499;28;20208;-53
2022/06/08 11:12:39;;;;;;;4.67;0.80;;;;;;;25.58;35.46;97966.63;5094795;28;20211;-54
2022/06/08 11:15:16;;;;;;;3.30;0.80;;;;;;;25.68;36.32;97968.53;5094910;28;20200;-55
2022/06/08 11:17:52;;;;;;;2.47;0.90;;;;;;;26.04;35.01;97960.47;5094629;28;20298;-53
2022/06/08 11:20:23;;;;;;;5.53;0.80;;;;;;;26.41;33.87;97971.97;5095244;28;20214;-53
2022/06/08 11:22:54;;;;;;;3.23;0.77;;;;;;;25.91;35.93;97959.16;5094475;28;20180;-52
2022/06/08 11:25:26;;;;;;;2.87;0.80;;;;;;;25.42;34.66;97955.91;5094471;28;20195;-53
2022/06/08 11:28:28;;;;;;;2.33;0.50;;;;;;;25.63;33.40;97956.75;5094011;28;20203;-52
2022/06/08 11:30:58;;;;;;;4.40;0.80;;;;;;;24.97;34.04;97936.03;5094595;28;20178;-54
2022/06/08 11:33:50;;;;;;;2.53;0.50;;;;;;;24.09;38.70;97946.22;5093356;28;20262;-53
2022/06/08 11:36:29;;;;;;;2.97;0.60;;;;;;;24.74;35.24;97941.56;5094506;28;20253;-52
2022/06/08 11:39:01;;;;;;;3.80;0.70;;;;;;;24.75;33.67;97937.00;5093991;28;20398;-52
2022/06/08 11:41:36;;;;;;;2.80;0.77;;;;;;;24.65;35.63;97936.94;5094670;28;20184;-52
2022/06/08 11:44:23;;;;;;;2.73;0.83;;;;;;;23.82;36.53;97944.41;5094979;28;20203;-53
2022/06/08 11:46:53;;;;;;;2.07;0.70;;;;;;;24.53;36.32;97940.59;5094294;28;20185;-54
2022/06/08 11:49:34;;;;;;;2.23;0.63;;;;;;;24.61;36.24;97926.78;5092895;28;20434;-52
2022/06/08 11:52:28;;;;;;;2.90;0.80;;;;;;;25.26;37.36;97931.03;5092931;28;20197;-52
2022/06/08 11:55:11;;;;;;;2.87;0.67;;;;;;;25.51;37.28;97921.47;5094296;28;20195;-53
2022/06/08 11:57:40;;;;;;;3.60;0.77;;;;;;;25.64;36.88;97926.28;5093360;28;20198;-55
2022/06/08 12:00:24;;;;;;;6.20;0.87;;;;;;;25.40;35.82;97920.63;5094294;28;20198;-53
2022/06/08 12:02:55;;;;;;;1.70;0.50;;;;;;;25.77;35.82;97916.13;5093843;28;20194;-53
2022/06/08 12:05:26;;;;;;;2.07;0.70;;;;;;;25.80;36.27;97920.94;5093695;28;20212;-52
2022/06/08 12:08:04;;;;;;;3.43;1.00;;;;;;;26.17;34.65;97916.38;5091942;28;20214;-53
2022/06/08 12:10:34;;;;;;;3.83;0.90;;;;;;;26.06;35.57;97921.72;5093810;28;20267;-52
2022/06/08 12:13:03;;;;;;;4.40;0.80;;;;;;;25.93;34.64;97920.41;5093424;28;20188;-54
2022/06/08 12:15:43;;;;;;;1.60;0.60;;;;;;;26.12;33.93;97927.06;5093306;28;20183;-53
2022/06/08 12:18:30;;;;;;;3.47;0.90;;;;;;;25.68;34.86;97925.75;5091865;28;20215;-52
2022/06/08 12:21:06;;;;;;;3.40;0.80;;;;;;;25.43;35.39;97922.78;5091874;28;20211;-54